sensor_id;sensor_type;location;lat;lon;timestamp;temperature;humidity
13713;DHT22;6928;50.546;7.120;2022-12-11T00:01:11;-1.35;88.32
13713;DHT22;6928;50.546;7.120;2022-12-11T00:03:38;-1.62;89.36
13713;DHT22;6928;50.546;7.120;2022-12-11T00:06:10;-1.66;89.96
13713;DHT22;6928;50.546;7.120;2022-12-11T00:08:38;-1.43;89.65
13713;DHT22;6928;50.546;7.120;2022-12-11T00:11:07;-1.19;88.68
13713;DHT22;6928;50.546;7.120;2022-12-11T00:13:34;-1.36;88.76
13713;DHT22;6928;50.546;7.120;2022-12-11T00:16:01;-1.42;88.94
13713;DHT22;6928;50.546;7.120;2022-12-11T00:18:27;-1.80;90.07
13713;DHT22;6928;50.546;7.120;2022-12-11T00:20:54;-1.77;90.49
13713;DHT22;6928;50.546;7.120;2022-12-11T00:23:27;-1.32;89.61
13713;DHT22;6928;50.546;7.120;2022-12-11T00:25:54;-1.49;89.49
13713;DHT22;6928;50.546;7.120;2022-12-11T00:28:21;-1.16;89.22
13713;DHT22;6928;50.546;7.120;2022-12-11T00:30:49;-1.14;88.69
13713;DHT22;6928;50.546;7.120;2022-12-11T00:33:16;-1.14;88.53
13713;DHT22;6928;50.546;7.120;2022-12-11T00:35:45;-1.45;89.27
13713;DHT22;6928;50.546;7.120;2022-12-11T00:38:15;-1.49;90.16
13713;DHT22;6928;50.546;7.120;2022-12-11T00:40:44;-1.29;89.57
13713;DHT22;6928;50.546;7.120;2022-12-11T00:43:11;-1.22;89.10
13713;DHT22;6928;50.546;7.120;2022-12-11T00:45:40;-1.28;89.27
13713;DHT22;6928;50.546;7.120;2022-12-11T00:48:07;-1.26;89.00
13713;DHT22;6928;50.546;7.120;2022-12-11T00:50:35;-1.24;89.05
13713;DHT22;6928;50.546;7.120;2022-12-11T00:53:03;-1.16;88.95
13713;DHT22;6928;50.546;7.120;2022-12-11T00:55:30;-1.18;88.76
13713;DHT22;6928;50.546;7.120;2022-12-11T00:57:59;-1.22;89.28
13713;DHT22;6928;50.546;7.120;2022-12-11T01:00:26;-1.12;88.95
13713;DHT22;6928;50.546;7.120;2022-12-11T01:02:52;-1.14;88.93
13713;DHT22;6928;50.546;7.120;2022-12-11T01:05:20;-0.94;88.79
13713;DHT22;6928;50.546;7.120;2022-12-11T01:07:47;-0.89;88.38
13713;DHT22;6928;50.546;7.120;2022-12-11T01:10:14;-0.78;88.49
13713;DHT22;6928;50.546;7.120;2022-12-11T01:12:49;-0.92;88.10
13713;DHT22;6928;50.546;7.120;2022-12-11T01:15:18;-0.88;88.21
13713;DHT22;6928;50.546;7.120;2022-12-11T01:17:45;-0.89;88.24
13713;DHT22;6928;50.546;7.120;2022-12-11T01:20:12;-0.81;88.07
13713;DHT22;6928;50.546;7.120;2022-12-11T01:22:38;-0.88;88.09
13713;DHT22;6928;50.546;7.120;2022-12-11T01:25:06;-0.99;88.45
13713;DHT22;6928;50.546;7.120;2022-12-11T01:27:34;-0.88;88.92
13713;DHT22;6928;50.546;7.120;2022-12-11T01:30:01;-0.85;88.55
13713;DHT22;6928;50.546;7.120;2022-12-11T01:32:30;-0.87;88.49
13713;DHT22;6928;50.546;7.120;2022-12-11T01:34:57;-0.88;88.58
13713;DHT22;6928;50.546;7.120;2022-12-11T01:37:24;-0.91;88.81
13713;DHT22;6928;50.546;7.120;2022-12-11T01:39:51;-0.89;88.97
13713;DHT22;6928;50.546;7.120;2022-12-11T01:42:19;-0.91;89.01
13713;DHT22;6928;50.546;7.120;2022-12-11T01:45:41;-0.68;88.49
13713;DHT22;6928;50.546;7.120;2022-12-11T01:48:15;-0.80;88.20
13713;DHT22;6928;50.546;7.120;2022-12-11T01:50:47;-0.76;88.34
13713;DHT22;6928;50.546;7.120;2022-12-11T01:53:20;-0.77;88.22
13713;DHT22;6928;50.546;7.120;2022-12-11T01:55:51;-0.78;88.61
13713;DHT22;6928;50.546;7.120;2022-12-11T01:58:20;-0.83;88.93
13713;DHT22;6928;50.546;7.120;2022-12-11T02:00:47;-0.87;88.85
13713;DHT22;6928;50.546;7.120;2022-12-11T02:03:16;-1.19;90.37
13713;DHT22;6928;50.546;7.120;2022-12-11T02:05:43;-1.18;90.31
13713;DHT22;6928;50.546;7.120;2022-12-11T02:08:10;-0.94;90.38
13713;DHT22;6928;50.546;7.120;2022-12-11T02:11:02;-0.83;89.43
13713;DHT22;6928;50.546;7.120;2022-12-11T02:13:40;-0.73;89.00
13713;DHT22;6928;50.546;7.120;2022-12-11T02:16:16;-1.12;89.71
13713;DHT22;6928;50.546;7.120;2022-12-11T02:18:50;-1.19;90.53
13713;DHT22;6928;50.546;7.120;2022-12-11T02:21:25;-1.04;90.29
13713;DHT22;6928;50.546;7.120;2022-12-11T02:24:18;-0.83;89.66
13713;DHT22;6928;50.546;7.120;2022-12-11T02:27:08;-1.22;90.38
13713;DHT22;6928;50.546;7.120;2022-12-11T02:29:41;-0.85;90.10
13713;DHT22;6928;50.546;7.120;2022-12-11T02:32:15;-1.05;89.57
13713;DHT22;6928;50.546;7.120;2022-12-11T02:34:47;-1.15;90.41
13713;DHT22;6928;50.546;7.120;2022-12-11T02:37:20;-0.84;89.95
13713;DHT22;6928;50.546;7.120;2022-12-11T02:39:51;-0.78;89.52
13713;DHT22;6928;50.546;7.120;2022-12-11T02:42:20;-0.77;89.25
13713;DHT22;6928;50.546;7.120;2022-12-11T02:44:50;-0.71;89.22
13713;DHT22;6928;50.546;7.120;2022-12-11T02:47:20;-0.67;89.01
13713;DHT22;6928;50.546;7.120;2022-12-11T02:49:48;-0.58;88.87
13713;DHT22;6928;50.546;7.120;2022-12-11T02:52:20;-0.54;88.59
13713;DHT22;6928;50.546;7.120;2022-12-11T02:54:49;-0.56;88.65
13713;DHT22;6928;50.546;7.120;2022-12-11T02:57:22;-0.58;88.74
13713;DHT22;6928;50.546;7.120;2022-12-11T02:59:51;-0.53;88.64
13713;DHT22;6928;50.546;7.120;2022-12-11T03:02:18;-0.60;88.65
13713;DHT22;6928;50.546;7.120;2022-12-11T03:04:47;-0.66;88.96
13713;DHT22;6928;50.546;7.120;2022-12-11T03:07:18;-0.64;89.15
13713;DHT22;6928;50.546;7.120;2022-12-11T03:09:49;-0.70;89.14
13713;DHT22;6928;50.546;7.120;2022-12-11T03:12:19;-0.73;89.64
13713;DHT22;6928;50.546;7.120;2022-12-11T03:14:47;-0.63;89.24
13713;DHT22;6928;50.546;7.120;2022-12-11T03:17:20;-0.54;88.87
13713;DHT22;6928;50.546;7.120;2022-12-11T03:19:54;-0.50;88.64
13713;DHT22;6928;50.546;7.120;2022-12-11T03:22:33;-0.45;88.71
13713;DHT22;6928;50.546;7.120;2022-12-11T03:25:08;-0.45;88.62
13713;DHT22;6928;50.546;7.120;2022-12-11T03:27:40;-0.46;88.69
13713;DHT22;6928;50.546;7.120;2022-12-11T03:30:13;-0.46;88.64
13713;DHT22;6928;50.546;7.120;2022-12-11T03:32:47;-0.42;88.60
13713;DHT22;6928;50.546;7.120;2022-12-11T03:35:20;-0.39;88.58
13713;DHT22;6928;50.546;7.120;2022-12-11T03:37:51;-0.60;88.91
13713;DHT22;6928;50.546;7.120;2022-12-11T03:40:20;-0.61;89.03
13713;DHT22;6928;50.546;7.120;2022-12-11T03:42:51;-0.88;90.27
13713;DHT22;6928;50.546;7.120;2022-12-11T03:45:20;-0.97;90.53
13713;DHT22;6928;50.546;7.120;2022-12-11T03:47:49;-0.68;90.68
13713;DHT22;6928;50.546;7.120;2022-12-11T03:50:19;-0.54;89.92
13713;DHT22;6928;50.546;7.120;2022-12-11T03:52:49;-0.40;89.44
13713;DHT22;6928;50.546;7.120;2022-12-11T03:55:17;-0.42;89.07
13713;DHT22;6928;50.546;7.120;2022-12-11T03:57:44;-0.42;88.96
13713;DHT22;6928;50.546;7.120;2022-12-11T04:00:15;-0.52;89.19
13713;DHT22;6928;50.546;7.120;2022-12-11T04:02:43;-0.46;89.23
13713;DHT22;6928;50.546;7.120;2022-12-11T04:05:31;-0.45;89.25
13713;DHT22;6928;50.546;7.120;2022-12-11T04:07:58;-0.45;89.25
13713;DHT22;6928;50.546;7.120;2022-12-11T04:10:25;-0.68;89.61
13713;DHT22;6928;50.546;7.120;2022-12-11T04:12:52;-0.67;90.62
13713;DHT22;6928;50.546;7.120;2022-12-11T04:15:19;-0.46;89.96
13713;DHT22;6928;50.546;7.120;2022-12-11T04:17:45;-0.36;89.61
13713;DHT22;6928;50.546;7.120;2022-12-11T04:20:30;-0.30;89.57
13713;DHT22;6928;50.546;7.120;2022-12-11T04:23:17;-0.30;89.64
13713;DHT22;6928;50.546;7.120;2022-12-11T04:26:05;-0.33;90.01
13713;DHT22;6928;50.546;7.120;2022-12-11T04:28:32;-0.57;90.51
13713;DHT22;6928;50.546;7.120;2022-12-11T04:30:59;-0.52;91.04
13713;DHT22;6928;50.546;7.120;2022-12-11T04:33:27;-0.39;90.65
13713;DHT22;6928;50.546;7.120;2022-12-11T04:35:57;-0.84;91.67
13713;DHT22;6928;50.546;7.120;2022-12-11T04:38:24;-0.74;92.43
13713;DHT22;6928;50.546;7.120;2022-12-11T04:40:57;-0.94;92.60
13713;DHT22;6928;50.546;7.120;2022-12-11T04:43:24;-0.73;92.47
13713;DHT22;6928;50.546;7.120;2022-12-11T04:46:00;-0.43;91.72
13713;DHT22;6928;50.546;7.120;2022-12-11T04:48:27;-0.37;91.45
13713;DHT22;6928;50.546;7.120;2022-12-11T04:50:56;-0.60;91.76
13713;DHT22;6928;50.546;7.120;2022-12-11T04:53:23;-0.45;91.45
13713;DHT22;6928;50.546;7.120;2022-12-11T04:55:50;-0.52;91.53
13713;DHT22;6928;50.546;7.120;2022-12-11T04:58:17;-0.52;91.60
13713;DHT22;6928;50.546;7.120;2022-12-11T05:00:44;-0.76;91.98
13713;DHT22;6928;50.546;7.120;2022-12-11T05:03:11;-0.63;92.59
13713;DHT22;6928;50.546;7.120;2022-12-11T05:05:38;-0.58;92.16
13713;DHT22;6928;50.546;7.120;2022-12-11T05:08:06;-0.67;92.07
13713;DHT22;6928;50.546;7.120;2022-12-11T05:10:33;-0.54;92.15
13713;DHT22;6928;50.546;7.120;2022-12-11T05:13:00;-0.47;91.84
13713;DHT22;6928;50.546;7.120;2022-12-11T05:15:27;-0.43;91.53
13713;DHT22;6928;50.546;7.120;2022-12-11T05:17:54;-0.32;91.26
13713;DHT22;6928;50.546;7.120;2022-12-11T05:20:20;-0.56;91.12
13713;DHT22;6928;50.546;7.120;2022-12-11T05:22:47;-0.60;92.13
13713;DHT22;6928;50.546;7.120;2022-12-11T05:25:16;-0.33;91.61
13713;DHT22;6928;50.546;7.120;2022-12-11T05:27:42;-0.37;91.40
13713;DHT22;6928;50.546;7.120;2022-12-11T05:30:10;-0.45;91.28
13713;DHT22;6928;50.546;7.120;2022-12-11T05:32:37;-0.73;92.27
13713;DHT22;6928;50.546;7.120;2022-12-11T05:35:04;-0.81;92.92
13713;DHT22;6928;50.546;7.120;2022-12-11T05:37:32;-0.81;93.10
13713;DHT22;6928;50.546;7.120;2022-12-11T05:39:59;-0.57;92.99
13713;DHT22;6928;50.546;7.120;2022-12-11T05:42:27;-0.45;92.21
13713;DHT22;6928;50.546;7.120;2022-12-11T05:44:54;-0.50;91.81
13713;DHT22;6928;50.546;7.120;2022-12-11T05:47:21;-0.43;91.61
13713;DHT22;6928;50.546;7.120;2022-12-11T05:49:48;-0.42;91.52
13713;DHT22;6928;50.546;7.120;2022-12-11T05:52:15;-0.40;91.40
13713;DHT22;6928;50.546;7.120;2022-12-11T05:54:42;-0.42;91.39
13713;DHT22;6928;50.546;7.120;2022-12-11T05:57:09;-0.43;91.79
13713;DHT22;6928;50.546;7.120;2022-12-11T05:59:37;-0.39;91.39
13713;DHT22;6928;50.546;7.120;2022-12-11T06:02:04;-0.46;91.36
13713;DHT22;6928;50.546;7.120;2022-12-11T06:04:31;-0.40;91.33
13713;DHT22;6928;50.546;7.120;2022-12-11T06:06:58;-0.39;91.32
13713;DHT22;6928;50.546;7.120;2022-12-11T06:09:25;-0.37;91.35
13713;DHT22;6928;50.546;7.120;2022-12-11T06:11:52;-0.30;91.25
13713;DHT22;6928;50.546;7.120;2022-12-11T06:14:19;-0.29;91.08
13713;DHT22;6928;50.546;7.120;2022-12-11T06:16:47;-0.37;91.14
13713;DHT22;6928;50.546;7.120;2022-12-11T06:19:15;-0.32;91.04
13713;DHT22;6928;50.546;7.120;2022-12-11T06:21:44;-0.30;91.19
13713;DHT22;6928;50.546;7.120;2022-12-11T06:24:11;-0.33;91.25
13713;DHT22;6928;50.546;7.120;2022-12-11T06:26:38;-0.33;91.05
13713;DHT22;6928;50.546;7.120;2022-12-11T06:29:05;-0.40;91.08
13713;DHT22;6928;50.546;7.120;2022-12-11T06:31:32;-0.45;91.73
13713;DHT22;6928;50.546;7.120;2022-12-11T06:34:00;-0.43;91.47
13713;DHT22;6928;50.546;7.120;2022-12-11T06:36:27;-0.43;91.19
13713;DHT22;6928;50.546;7.120;2022-12-11T06:38:54;-0.35;91.32
13713;DHT22;6928;50.546;7.120;2022-12-11T06:41:21;-0.21;91.11
13713;DHT22;6928;50.546;7.120;2022-12-11T06:43:48;-0.29;91.31
13713;DHT22;6928;50.546;7.120;2022-12-11T06:46:17;-0.22;90.98
13713;DHT22;6928;50.546;7.120;2022-12-11T06:48:45;-0.22;90.57
13713;DHT22;6928;50.546;7.120;2022-12-11T06:51:16;-0.26;90.64
13713;DHT22;6928;50.546;7.120;2022-12-11T06:53:43;-0.14;90.55
13713;DHT22;6928;50.546;7.120;2022-12-11T06:56:13;-0.26;90.54
13713;DHT22;6928;50.546;7.120;2022-12-11T06:58:41;-0.25;90.57
13713;DHT22;6928;50.546;7.120;2022-12-11T07:01:14;-0.33;90.52
13713;DHT22;6928;50.546;7.120;2022-12-11T07:03:41;-0.30;90.66
13713;DHT22;6928;50.546;7.120;2022-12-11T07:06:08;-0.28;90.60
13713;DHT22;6928;50.546;7.120;2022-12-11T07:08:37;-0.42;90.96
13713;DHT22;6928;50.546;7.120;2022-12-11T07:11:04;-0.47;91.44
13713;DHT22;6928;50.546;7.120;2022-12-11T07:13:32;-0.49;91.93
13713;DHT22;6928;50.546;7.120;2022-12-11T07:16:00;-0.35;91.24
13713;DHT22;6928;50.546;7.120;2022-12-11T07:18:29;-0.32;90.84
13713;DHT22;6928;50.546;7.120;2022-12-11T07:20:57;-0.32;90.87
13713;DHT22;6928;50.546;7.120;2022-12-11T07:23:25;-0.36;90.98
13713;DHT22;6928;50.546;7.120;2022-12-11T07:25:54;-0.40;91.08
13713;DHT22;6928;50.546;7.120;2022-12-11T07:28:21;-0.40;91.35
13713;DHT22;6928;50.546;7.120;2022-12-11T07:30:48;-0.22;91.16
13713;DHT22;6928;50.546;7.120;2022-12-11T07:33:15;-0.33;90.91
13713;DHT22;6928;50.546;7.120;2022-12-11T07:35:42;-0.22;90.86
13713;DHT22;6928;50.546;7.120;2022-12-11T07:38:09;-0.15;90.62
13713;DHT22;6928;50.546;7.120;2022-12-11T07:40:36;-0.23;90.48
13713;DHT22;6928;50.546;7.120;2022-12-11T07:43:05;-0.25;90.71
13713;DHT22;6928;50.546;7.120;2022-12-11T07:45:32;-0.26;90.89
13713;DHT22;6928;50.546;7.120;2022-12-11T07:47:59;-0.23;91.18
13713;DHT22;6928;50.546;7.120;2022-12-11T07:50:25;-0.15;90.75
13713;DHT22;6928;50.546;7.120;2022-12-11T07:52:55;-0.18;90.50
13713;DHT22;6928;50.546;7.120;2022-12-11T07:55:22;-0.32;90.45
13713;DHT22;6928;50.546;7.120;2022-12-11T07:57:49;-0.46;91.62
13713;DHT22;6928;50.546;7.120;2022-12-11T08:00:18;-0.18;91.24
13713;DHT22;6928;50.546;7.120;2022-12-11T08:02:45;-0.26;91.01
13713;DHT22;6928;50.546;7.120;2022-12-11T08:05:11;-0.37;90.86
13713;DHT22;6928;50.546;7.120;2022-12-11T08:07:38;-0.54;91.43
13713;DHT22;6928;50.546;7.120;2022-12-11T08:10:06;-0.61;91.86
13713;DHT22;6928;50.546;7.120;2022-12-11T08:12:33;-0.57;92.13
13713;DHT22;6928;50.546;7.120;2022-12-11T08:14:59;-0.29;91.77
13713;DHT22;6928;50.546;7.120;2022-12-11T08:17:27;-0.43;91.45
13713;DHT22;6928;50.546;7.120;2022-12-11T08:19:54;-0.50;92.14
13713;DHT22;6928;50.546;7.120;2022-12-11T08:22:21;-0.19;91.73
13713;DHT22;6928;50.546;7.120;2022-12-11T08:24:48;-0.18;91.57
13713;DHT22;6928;50.546;7.120;2022-12-11T08:27:15;-0.04;91.13
13713;DHT22;6928;50.546;7.120;2022-12-11T08:29:41;-0.26;90.98
13713;DHT22;6928;50.546;7.120;2022-12-11T08:32:08;-0.05;91.28
13713;DHT22;6928;50.546;7.120;2022-12-11T08:34:37;0.02;90.73
13713;DHT22;6928;50.546;7.120;2022-12-11T08:37:04;0.05;90.46
13713;DHT22;6928;50.546;7.120;2022-12-11T08:39:30;0.06;90.54
13713;DHT22;6928;50.546;7.120;2022-12-11T08:41:57;0.18;90.32
13713;DHT22;6928;50.546;7.120;2022-12-11T08:44:24;0.05;90.28
13713;DHT22;6928;50.546;7.120;2022-12-11T08:46:51;0.05;90.29
13713;DHT22;6928;50.546;7.120;2022-12-11T08:49:18;-0.04;90.68
13713;DHT22;6928;50.546;7.120;2022-12-11T08:51:46;0.06;90.60
13713;DHT22;6928;50.546;7.120;2022-12-11T08:54:13;0.19;90.15
13713;DHT22;6928;50.546;7.120;2022-12-11T08:56:40;0.16;89.99
13713;DHT22;6928;50.546;7.120;2022-12-11T08:59:07;-0.15;89.78
13713;DHT22;6928;50.546;7.120;2022-12-11T09:01:34;-0.30;91.06
13713;DHT22;6928;50.546;7.120;2022-12-11T09:04:01;-0.01;90.70
13713;DHT22;6928;50.546;7.120;2022-12-11T09:06:29;0.09;90.17
13713;DHT22;6928;50.546;7.120;2022-12-11T09:08:58;0.12;89.91
13713;DHT22;6928;50.546;7.120;2022-12-11T09:11:28;0.15;89.86
13713;DHT22;6928;50.546;7.120;2022-12-11T09:13:56;0.15;89.72
13713;DHT22;6928;50.546;7.120;2022-12-11T09:16:25;0.16;89.54
13713;DHT22;6928;50.546;7.120;2022-12-11T09:18:55;0.15;89.39
13713;DHT22;6928;50.546;7.120;2022-12-11T09:21:24;0.16;89.31
13713;DHT22;6928;50.546;7.120;2022-12-11T09:23:53;0.19;89.41
13713;DHT22;6928;50.546;7.120;2022-12-11T09:26:22;0.36;89.39
13713;DHT22;6928;50.546;7.120;2022-12-11T09:28:49;0.13;89.38
13713;DHT22;6928;50.546;7.120;2022-12-11T09:31:19;-0.16;90.30
13713;DHT22;6928;50.546;7.120;2022-12-11T09:33:48;0.02;90.77
13713;DHT22;6928;50.546;7.120;2022-12-11T09:36:15;0.34;89.81
13713;DHT22;6928;50.546;7.120;2022-12-11T09:38:42;0.03;89.72
13713;DHT22;6928;50.546;7.120;2022-12-11T09:41:38;-0.08;90.62
13713;DHT22;6928;50.546;7.120;2022-12-11T09:44:20;-0.09;90.53
13713;DHT22;6928;50.546;7.120;2022-12-11T09:46:49;-0.14;90.69
13713;DHT22;6928;50.546;7.120;2022-12-11T09:49:25;-0.28;90.74
13713;DHT22;6928;50.546;7.120;2022-12-11T09:52:02;-0.23;90.78
13713;DHT22;6928;50.546;7.120;2022-12-11T09:54:31;-0.14;90.84
13713;DHT22;6928;50.546;7.120;2022-12-11T09:57:11;-0.11;90.60
13713;DHT22;6928;50.546;7.120;2022-12-11T09:59:51;0.22;90.19
13713;DHT22;6928;50.546;7.120;2022-12-11T10:02:31;0.15;89.50
13713;DHT22;6928;50.546;7.120;2022-12-11T10:05:10;-0.15;90.41
13713;DHT22;6928;50.546;7.120;2022-12-11T10:07:47;0.02;90.60
13713;DHT22;6928;50.546;7.120;2022-12-11T10:10:23;-0.15;90.33
13713;DHT22;6928;50.546;7.120;2022-12-11T10:13:03;0.01;90.85
13713;DHT22;6928;50.546;7.120;2022-12-11T10:15:38;0.09;90.19
13713;DHT22;6928;50.546;7.120;2022-12-11T10:18:11;0.42;89.68
13713;DHT22;6928;50.546;7.120;2022-12-11T10:20:39;0.44;89.38
13713;DHT22;6928;50.546;7.120;2022-12-11T10:23:12;0.50;89.27
13713;DHT22;6928;50.546;7.120;2022-12-11T10:25:45;0.52;89.34
13713;DHT22;6928;50.546;7.120;2022-12-11T10:28:17;0.47;89.17
13713;DHT22;6928;50.546;7.120;2022-12-11T10:30:50;0.40;88.83
13713;DHT22;6928;50.546;7.120;2022-12-11T10:33:21;0.36;88.69
13713;DHT22;6928;50.546;7.120;2022-12-11T10:35:51;0.36;88.92
13713;DHT22;6928;50.546;7.120;2022-12-11T10:38:26;0.25;88.61
13713;DHT22;6928;50.546;7.120;2022-12-11T10:40:56;0.47;88.76
13713;DHT22;6928;50.546;7.120;2022-12-11T10:43:36;0.15;87.97
13713;DHT22;6928;50.546;7.120;2022-12-11T10:46:05;0.39;88.61
13713;DHT22;6928;50.546;7.120;2022-12-11T10:48:32;0.56;88.09
13713;DHT22;6928;50.546;7.120;2022-12-11T10:51:02;0.37;88.76
13713;DHT22;6928;50.546;7.120;2022-12-11T10:53:31;0.32;89.44
13713;DHT22;6928;50.546;7.120;2022-12-11T10:55:59;0.23;89.51
13713;DHT22;6928;50.546;7.120;2022-12-11T10:58:29;0.26;89.55
13713;DHT22;6928;50.546;7.120;2022-12-11T11:01:08;0.47;88.85
13713;DHT22;6928;50.546;7.120;2022-12-11T11:03:54;0.19;88.80
13713;DHT22;6928;50.546;7.120;2022-12-11T11:06:22;0.42;89.06
13713;DHT22;6928;50.546;7.120;2022-12-11T11:08:53;0.33;89.01
13713;DHT22;6928;50.546;7.120;2022-12-11T11:11:27;0.42;88.42
13713;DHT22;6928;50.546;7.120;2022-12-11T11:14:13;0.58;88.27
13713;DHT22;6928;50.546;7.120;2022-12-11T11:16:44;0.54;88.34
13713;DHT22;6928;50.546;7.120;2022-12-11T11:19:20;0.34;88.34
13713;DHT22;6928;50.546;7.120;2022-12-11T11:21:51;0.53;88.65
13713;DHT22;6928;50.546;7.120;2022-12-11T11:24:26;0.77;88.04
13713;DHT22;6928;50.546;7.120;2022-12-11T11:26:54;0.78;87.83
13713;DHT22;6928;50.546;7.120;2022-12-11T11:29:27;0.80;87.71
13713;DHT22;6928;50.546;7.120;2022-12-11T11:31:56;0.85;87.47
13713;DHT22;6928;50.546;7.120;2022-12-11T11:34:23;0.81;87.28
13713;DHT22;6928;50.546;7.120;2022-12-11T11:36:56;0.67;87.42
13713;DHT22;6928;50.546;7.120;2022-12-11T11:39:30;0.80;87.51
13713;DHT22;6928;50.546;7.120;2022-12-11T11:42:01;0.96;87.49
13713;DHT22;6928;50.546;7.120;2022-12-11T11:44:34;1.05;86.99
13713;DHT22;6928;50.546;7.120;2022-12-11T11:47:09;0.85;86.81
13713;DHT22;6928;50.546;7.120;2022-12-11T11:49:49;0.73;86.76
13713;DHT22;6928;50.546;7.120;2022-12-11T11:52:23;0.52;87.19
13713;DHT22;6928;50.546;7.120;2022-12-11T11:55:00;0.65;87.28
13713;DHT22;6928;50.546;7.120;2022-12-11T11:57:39;0.70;86.92
13713;DHT22;6928;50.546;7.120;2022-12-11T12:00:18;0.65;86.50
13713;DHT22;6928;50.546;7.120;2022-12-11T12:02:48;0.46;86.82
13713;DHT22;6928;50.546;7.120;2022-12-11T12:05:24;0.78;86.94
13713;DHT22;6928;50.546;7.120;2022-12-11T12:08:04;0.85;86.74
13713;DHT22;6928;50.546;7.120;2022-12-11T12:10:39;1.03;86.31
13713;DHT22;6928;50.546;7.120;2022-12-11T12:13:16;0.92;85.86
13713;DHT22;6928;50.546;7.120;2022-12-11T12:15:55;1.02;86.31
13713;DHT22;6928;50.546;7.120;2022-12-11T12:18:34;1.16;86.20
13713;DHT22;6928;50.546;7.120;2022-12-11T12:21:15;1.18;86.10
13713;DHT22;6928;50.546;7.120;2022-12-11T12:24:00;1.13;86.91
13713;DHT22;6928;50.546;7.120;2022-12-11T12:26:30;1.28;86.23
13713;DHT22;6928;50.546;7.120;2022-12-11T12:29:11;1.18;85.89
13713;DHT22;6928;50.546;7.120;2022-12-11T12:31:59;0.89;86.74
13713;DHT22;6928;50.546;7.120;2022-12-11T12:34:46;0.99;86.13
13713;DHT22;6928;50.546;7.120;2022-12-11T12:37:26;1.01;86.69
13713;DHT22;6928;50.546;7.120;2022-12-11T12:40:13;1.22;86.39
13713;DHT22;6928;50.546;7.120;2022-12-11T12:42:49;1.23;86.30
13713;DHT22;6928;50.546;7.120;2022-12-11T12:45:26;1.39;86.36
13713;DHT22;6928;50.546;7.120;2022-12-11T12:47:54;1.31;85.87
13713;DHT22;6928;50.546;7.120;2022-12-11T12:50:25;1.02;86.46
13713;DHT22;6928;50.546;7.120;2022-12-11T12:52:55;1.38;85.95
13713;DHT22;6928;50.546;7.120;2022-12-11T12:55:25;1.31;85.49
13713;DHT22;6928;50.546;7.120;2022-12-11T12:57:55;1.15;85.44
13713;DHT22;6928;50.546;7.120;2022-12-11T13:00:32;1.44;85.43
13713;DHT22;6928;50.546;7.120;2022-12-11T13:03:12;1.50;85.32
13713;DHT22;6928;50.546;7.120;2022-12-11T13:05:44;1.53;85.39
13713;DHT22;6928;50.546;7.120;2022-12-11T13:08:11;1.57;85.22
13713;DHT22;6928;50.546;7.120;2022-12-11T13:10:41;1.60;84.90
13713;DHT22;6928;50.546;7.120;2022-12-11T13:13:31;1.31;85.24
13713;DHT22;6928;50.546;7.120;2022-12-11T13:16:20;1.46;84.87
13713;DHT22;6928;50.546;7.120;2022-12-11T13:18:49;1.70;84.42
13713;DHT22;6928;50.546;7.120;2022-12-11T13:21:31;1.62;84.10
13713;DHT22;6928;50.546;7.120;2022-12-11T13:24:23;1.46;84.32
13713;DHT22;6928;50.546;7.120;2022-12-11T13:26:51;1.31;84.29
13713;DHT22;6928;50.546;7.120;2022-12-11T13:29:31;1.39;84.53
13713;DHT22;6928;50.546;7.120;2022-12-11T13:32:02;1.57;84.64
13713;DHT22;6928;50.546;7.120;2022-12-11T13:34:34;1.67;84.41
13713;DHT22;6928;50.546;7.120;2022-12-11T13:37:04;1.71;84.62
13713;DHT22;6928;50.546;7.120;2022-12-11T13:39:34;1.56;84.34
13713;DHT22;6928;50.546;7.120;2022-12-11T13:42:05;1.60;84.39
13713;DHT22;6928;50.546;7.120;2022-12-11T13:44:37;1.43;84.93
13713;DHT22;6928;50.546;7.120;2022-12-11T13:47:09;1.46;84.63
13713;DHT22;6928;50.546;7.120;2022-12-11T13:49:41;1.57;84.64
13713;DHT22;6928;50.546;7.120;2022-12-11T13:52:18;1.52;84.44
13713;DHT22;6928;50.546;7.120;2022-12-11T13:54:48;1.36;85.12
13713;DHT22;6928;50.546;7.120;2022-12-11T13:57:17;1.39;84.94
13713;DHT22;6928;50.546;7.120;2022-12-11T13:59:48;1.49;84.89
13713;DHT22;6928;50.546;7.120;2022-12-11T14:02:20;1.46;85.10
13713;DHT22;6928;50.546;7.120;2022-12-11T14:04:53;1.16;85.14
13713;DHT22;6928;50.546;7.120;2022-12-11T14:07:26;1.21;85.55
13713;DHT22;6928;50.546;7.120;2022-12-11T14:09:59;1.23;85.81
13713;DHT22;6928;50.546;7.120;2022-12-11T14:12:27;1.23;85.38
13713;DHT22;6928;50.546;7.120;2022-12-11T14:14:56;1.16;85.57
13713;DHT22;6928;50.546;7.120;2022-12-11T14:17:29;1.28;85.46
13713;DHT22;6928;50.546;7.120;2022-12-11T14:20:00;1.16;84.94
13713;DHT22;6928;50.546;7.120;2022-12-11T14:22:29;1.42;84.70
13713;DHT22;6928;50.546;7.120;2022-12-11T14:24:59;1.49;84.40
13713;DHT22;6928;50.546;7.120;2022-12-11T14:27:28;1.39;84.53
13713;DHT22;6928;50.546;7.120;2022-12-11T14:29:55;1.36;84.62
13713;DHT22;6928;50.546;7.120;2022-12-11T14:32:29;1.09;84.87
13713;DHT22;6928;50.546;7.120;2022-12-11T14:34:57;1.35;85.00
13713;DHT22;6928;50.546;7.120;2022-12-11T14:37:26;1.36;84.48
13713;DHT22;6928;50.546;7.120;2022-12-11T14:39:59;1.43;84.52
13713;DHT22;6928;50.546;7.120;2022-12-11T14:42:29;1.40;84.63
13713;DHT22;6928;50.546;7.120;2022-12-11T14:45:02;1.40;84.26
13713;DHT22;6928;50.546;7.120;2022-12-11T14:47:36;1.50;84.40
13713;DHT22;6928;50.546;7.120;2022-12-11T14:50:07;1.47;84.97
13713;DHT22;6928;50.546;7.120;2022-12-11T14:52:41;1.59;84.52
13713;DHT22;6928;50.546;7.120;2022-12-11T14:55:14;1.52;84.59
13713;DHT22;6928;50.546;7.120;2022-12-11T14:57:46;1.49;84.69
13713;DHT22;6928;50.546;7.120;2022-12-11T15:00:23;1.52;85.01
13713;DHT22;6928;50.546;7.120;2022-12-11T15:02:58;1.49;84.73
13713;DHT22;6928;50.546;7.120;2022-12-11T15:05:26;1.47;84.87
13713;DHT22;6928;50.546;7.120;2022-12-11T15:07:57;1.52;84.68
13713;DHT22;6928;50.546;7.120;2022-12-11T15:10:32;1.42;84.85
13713;DHT22;6928;50.546;7.120;2022-12-11T15:13:02;1.43;84.68
13713;DHT22;6928;50.546;7.120;2022-12-11T15:15:32;1.47;84.53
13713;DHT22;6928;50.546;7.120;2022-12-11T15:18:00;1.38;84.32
13713;DHT22;6928;50.546;7.120;2022-12-11T15:20:29;1.23;85.12
13713;DHT22;6928;50.546;7.120;2022-12-11T15:22:58;1.88;86.32
13713;DHT22;6928;50.546;7.120;2022-12-11T15:25:28;1.56;84.45
13713;DHT22;6928;50.546;7.120;2022-12-11T15:27:59;1.42;84.38
13713;DHT22;6928;50.546;7.120;2022-12-11T15:30:30;1.15;85.42
13713;DHT22;6928;50.546;7.120;2022-12-11T15:33:18;1.33;85.52
13713;DHT22;6928;50.546;7.120;2022-12-11T15:35:59;1.05;85.62
13713;DHT22;6928;50.546;7.120;2022-12-11T15:38:30;1.31;85.37
13713;DHT22;6928;50.546;7.120;2022-12-11T15:40:59;1.47;85.08
13713;DHT22;6928;50.546;7.120;2022-12-11T15:43:27;1.40;84.74
13713;DHT22;6928;50.546;7.120;2022-12-11T15:45:55;1.31;85.19
13713;DHT22;6928;50.546;7.120;2022-12-11T15:48:22;1.36;84.89
13713;DHT22;6928;50.546;7.120;2022-12-11T15:50:49;1.47;84.85
13713;DHT22;6928;50.546;7.120;2022-12-11T15:53:16;1.28;85.21
13713;DHT22;6928;50.546;7.120;2022-12-11T15:55:43;1.42;85.17
13713;DHT22;6928;50.546;7.120;2022-12-11T15:58:16;1.38;85.09
13713;DHT22;6928;50.546;7.120;2022-12-11T16:00:44;1.46;85.05
13713;DHT22;6928;50.546;7.120;2022-12-11T16:03:12;1.44;84.86
13713;DHT22;6928;50.546;7.120;2022-12-11T16:05:40;1.39;85.02
13713;DHT22;6928;50.546;7.120;2022-12-11T16:08:12;1.35;85.15
13713;DHT22;6928;50.546;7.120;2022-12-11T16:10:40;1.42;85.23
13713;DHT22;6928;50.546;7.120;2022-12-11T16:13:07;1.38;85.29
13713;DHT22;6928;50.546;7.120;2022-12-11T16:15:38;1.32;85.33